Williams, California
Current Conditions -  °F | °C
As of 8:42 AM on Friday 21 Nov 2014 (Local Time) from KMYV Reporting Station
Haze Haze  
Wind Chill: 50°   Ceiling: 200
Heat Index: 50°   Visibility: 1.2mi
Dew Point: 49°   Wind: 5mph
Humidity: 96%   Direction: 350°N
Pressure: 30.12"   Gusts: NA
Location:  39.15°N, 122.15°W
Report Text: KMYV 211642Z AUTO 35004KT 1 1/4SM BR OVC002 10/09 A3012 RMK AO2 T01000094
Loading
Personal Weather Stations






























Interactive Weather Map New forecast layout! Learn more

10-Day Weather Forecast

Advertisements
Track Severe Weather on mobile